sensor_id;sensor_type;location;lat;lon;timestamp;P1;P2;P0
77411;PMS7003;66484;49.968;19.140;2024-03-17T00:00:21;12.75;11.25;7.75
77411;PMS7003;66484;49.968;19.140;2024-03-17T00:02:42;12.00;11.00;8.00
77411;PMS7003;66484;49.968;19.140;2024-03-17T00:04:42;8.50;7.75;6.25
77411;PMS7003;66484;49.968;19.140;2024-03-17T00:06:43;8.50;7.25;5.00
77411;PMS7003;66484;49.968;19.140;2024-03-17T00:08:44;5.75;4.75;3.00
77411;PMS7003;66484;49.968;19.140;2024-03-17T00:10:44;6.25;6.25;4.75
77411;PMS7003;66484;49.968;19.140;2024-03-17T00:12:50;7.75;6.00;4.00
77411;PMS7003;66484;49.968;19.140;2024-03-17T00:14:51;7.50;7.00;5.00
77411;PMS7003;66484;49.968;19.140;2024-03-17T00:16:52;3.50;3.50;3.00
77411;PMS7003;66484;49.968;19.140;2024-03-17T00:18:53;6.25;5.50;3.25
77411;PMS7003;66484;49.968;19.140;2024-03-17T00:20:54;8.75;7.00;5.00
77411;PMS7003;66484;49.968;19.140;2024-03-17T00:22:54;7.00;6.50;4.00
77411;PMS7003;66484;49.968;19.140;2024-03-17T00:24:55;7.00;7.00;4.00
77411;PMS7003;66484;49.968;19.140;2024-03-17T00:26:56;4.00;4.00;3.00
77411;PMS7003;66484;49.968;19.140;2024-03-17T00:28:57;8.50;8.50;5.75
77411;PMS7003;66484;49.968;19.140;2024-03-17T00:30:58;10.25;9.00;5.00
77411;PMS7003;66484;49.968;19.140;2024-03-17T00:32:59;9.75;9.75;5.00
77411;PMS7003;66484;49.968;19.140;2024-03-17T00:34:59;11.75;8.75;7.25
77411;PMS7003;66484;49.968;19.140;2024-03-17T00:37:01;8.50;7.50;6.25
77411;PMS7003;66484;49.968;19.140;2024-03-17T00:39:03;8.00;6.00;4.00
77411;PMS7003;66484;49.968;19.140;2024-03-17T00:41:05;2.50;2.50;1.00
77411;PMS7003;66484;49.968;19.140;2024-03-17T00:43:06;8.00;8.00;5.00
77411;PMS7003;66484;49.968;19.140;2024-03-17T00:45:08;9.50;7.50;5.25
77411;PMS7003;66484;49.968;19.140;2024-03-17T00:47:10;8.50;8.00;6.00
77411;PMS7003;66484;49.968;19.140;2024-03-17T00:49:12;6.25;4.50;3.50
77411;PMS7003;66484;49.968;19.140;2024-03-17T00:51:13;5.25;5.25;3.75
77411;PMS7003;66484;49.968;19.140;2024-03-17T00:53:14;4.75;4.75;3.75
77411;PMS7003;66484;49.968;19.140;2024-03-17T00:55:14;6.50;5.50;4.00
77411;PMS7003;66484;49.968;19.140;2024-03-17T00:57:15;5.00;5.00;4.00
77411;PMS7003;66484;49.968;19.140;2024-03-17T00:59:16;6.75;6.25;4.00
77411;PMS7003;66484;49.968;19.140;2024-03-17T01:01:17;1.50;1.25;1.00
77411;PMS7003;66484;49.968;19.140;2024-03-17T01:03:19;6.25;6.25;4.25
77411;PMS7003;66484;49.968;19.140;2024-03-17T01:05:20;8.50;7.50;4.75
77411;PMS7003;66484;49.968;19.140;2024-03-17T01:07:21;7.25;7.25;3.50
77411;PMS7003;66484;49.968;19.140;2024-03-17T01:09:21;7.25;7.25;5.50
77411;PMS7003;66484;49.968;19.140;2024-03-17T01:11:22;8.00;8.00;6.00
77411;PMS7003;66484;49.968;19.140;2024-03-17T01:13:23;6.75;6.75;5.00
77411;PMS7003;66484;49.968;19.140;2024-03-17T01:15:23;9.00;8.00;5.00
77411;PMS7003;66484;49.968;19.140;2024-03-17T01:17:24;10.50;7.75;6.25
77411;PMS7003;66484;49.968;19.140;2024-03-17T01:19:25;8.50;8.25;6.25
77411;PMS7003;66484;49.968;19.140;2024-03-17T01:21:27;7.75;7.75;4.75
77411;PMS7003;66484;49.968;19.140;2024-03-17T01:23:27;13.75;12.75;8.75
77411;PMS7003;66484;49.968;19.140;2024-03-17T01:25:28;16.25;14.50;11.75
77411;PMS7003;66484;49.968;19.140;2024-03-17T01:27:30;23.25;17.00;12.00
77411;PMS7003;66484;49.968;19.140;2024-03-17T01:29:30;15.50;14.75;10.25
77411;PMS7003;66484;49.968;19.140;2024-03-17T01:31:31;16.00;15.50;11.00
77411;PMS7003;66484;49.968;19.140;2024-03-17T01:33:32;16.00;13.25;9.75
77411;PMS7003;66484;49.968;19.140;2024-03-17T01:35:32;8.50;8.50;6.50
77411;PMS7003;66484;49.968;19.140;2024-03-17T01:37:34;14.75;14.75;11.50
77411;PMS7003;66484;49.968;19.140;2024-03-17T01:39:34;16.00;15.50;11.75
77411;PMS7003;66484;49.968;19.140;2024-03-17T01:41:35;22.00;16.75;11.00
77411;PMS7003;66484;49.968;19.140;2024-03-17T01:43:36;15.00;15.00;11.75
77411;PMS7003;66484;49.968;19.140;2024-03-17T01:45:37;21.25;16.00;11.00
77411;PMS7003;66484;49.968;19.140;2024-03-17T01:47:37;16.75;15.25;9.50
77411;PMS7003;66484;49.968;19.140;2024-03-17T01:49:39;17.75;16.75;11.75
77411;PMS7003;66484;49.968;19.140;2024-03-17T01:51:40;15.50;15.00;10.00
77411;PMS7003;66484;49.968;19.140;2024-03-17T01:53:41;21.25;20.50;15.00
77411;PMS7003;66484;49.968;19.140;2024-03-17T01:55:43;28.50;17.75;12.25
77411;PMS7003;66484;49.968;19.140;2024-03-17T01:57:46;19.75;16.50;11.00
77411;PMS7003;66484;49.968;19.140;2024-03-17T01:59:47;13.00;12.50;8.50
77411;PMS7003;66484;49.968;19.140;2024-03-17T02:01:48;17.75;14.75;9.00
77411;PMS7003;66484;49.968;19.140;2024-03-17T02:03:48;16.25;14.50;11.50
77411;PMS7003;66484;49.968;19.140;2024-03-17T02:05:49;19.25;16.75;11.75
77411;PMS7003;66484;49.968;19.140;2024-03-17T02:07:50;16.75;16.75;14.00
77411;PMS7003;66484;49.968;19.140;2024-03-17T02:09:51;16.50;16.50;13.25
77411;PMS7003;66484;49.968;19.140;2024-03-17T02:11:51;14.00;11.50;8.00
77411;PMS7003;66484;49.968;19.140;2024-03-17T02:13:52;12.50;11.50;8.25
77411;PMS7003;66484;49.968;19.140;2024-03-17T02:15:53;10.75;10.75;8.00
77411;PMS7003;66484;49.968;19.140;2024-03-17T02:17:54;17.50;17.50;11.50
77411;PMS7003;66484;49.968;19.140;2024-03-17T02:19:55;17.75;12.75;9.00
77411;PMS7003;66484;49.968;19.140;2024-03-17T02:21:56;19.50;14.00;8.25
77411;PMS7003;66484;49.968;19.140;2024-03-17T02:23:57;23.50;21.75;15.00
77411;PMS7003;66484;49.968;19.140;2024-03-17T02:25:58;17.50;16.25;10.25
77411;PMS7003;66484;49.968;19.140;2024-03-17T02:27:59;18.50;17.00;9.00
77411;PMS7003;66484;49.968;19.140;2024-03-17T02:29:59;10.25;10.25;7.50
77411;PMS7003;66484;49.968;19.140;2024-03-17T02:32:00;18.50;15.00;10.00
77411;PMS7003;66484;49.968;19.140;2024-03-17T02:34:06;20.25;19.50;11.50
77411;PMS7003;66484;49.968;19.140;2024-03-17T02:36:07;33.50;26.25;15.50
77411;PMS7003;66484;49.968;19.140;2024-03-17T02:38:09;29.25;26.75;16.75
77411;PMS7003;66484;49.968;19.140;2024-03-17T02:40:15;27.25;25.50;16.25
77411;PMS7003;66484;49.968;19.140;2024-03-17T02:42:16;26.50;24.75;15.75
77411;PMS7003;66484;49.968;19.140;2024-03-17T02:44:17;17.50;14.75;10.00
77411;PMS7003;66484;49.968;19.140;2024-03-17T02:46:18;19.00;18.00;11.75
77411;PMS7003;66484;49.968;19.140;2024-03-17T02:48:19;13.00;13.00;9.75
77411;PMS7003;66484;49.968;19.140;2024-03-17T02:50:20;19.50;17.00;12.75
77411;PMS7003;66484;49.968;19.140;2024-03-17T02:52:21;19.00;16.75;14.25
77411;PMS7003;66484;49.968;19.140;2024-03-17T02:54:22;24.75;23.25;14.25
77411;PMS7003;66484;49.968;19.140;2024-03-17T02:56:23;15.75;15.50;10.00
77411;PMS7003;66484;49.968;19.140;2024-03-17T02:58:23;18.50;17.00;11.75
77411;PMS7003;66484;49.968;19.140;2024-03-17T03:00:24;19.50;18.50;14.25
77411;PMS7003;66484;49.968;19.140;2024-03-17T03:02:25;16.00;15.00;9.00
77411;PMS7003;66484;49.968;19.140;2024-03-17T03:04:27;17.75;14.00;9.00
77411;PMS7003;66484;49.968;19.140;2024-03-17T03:06:27;16.25;13.50;9.00
77411;PMS7003;66484;49.968;19.140;2024-03-17T03:08:28;17.00;17.00;10.25
77411;PMS7003;66484;49.968;19.140;2024-03-17T03:10:29;17.25;17.25;10.75
77411;PMS7003;66484;49.968;19.140;2024-03-17T03:12:30;24.25;20.00;13.25
77411;PMS7003;66484;49.968;19.140;2024-03-17T03:14:30;15.75;15.00;10.25
77411;PMS7003;66484;49.968;19.140;2024-03-17T03:16:32;11.00;9.00;7.00
77411;PMS7003;66484;49.968;19.140;2024-03-17T03:18:34;14.00;9.50;6.75
77411;PMS7003;66484;49.968;19.140;2024-03-17T03:20:35;17.75;13.50;7.00
77411;PMS7003;66484;49.968;19.140;2024-03-17T03:22:36;9.00;7.25;5.00
77411;PMS7003;66484;49.968;19.140;2024-03-17T03:24:36;13.00;9.50;7.25
77411;PMS7003;66484;49.968;19.140;2024-03-17T03:26:37;21.00;16.25;11.00
77411;PMS7003;66484;49.968;19.140;2024-03-17T03:28:39;22.50;19.50;12.00
77411;PMS7003;66484;49.968;19.140;2024-03-17T03:30:39;15.00;13.00;9.50
77411;PMS7003;66484;49.968;19.140;2024-03-17T03:32:41;18.75;18.00;10.75
77411;PMS7003;66484;49.968;19.140;2024-03-17T03:34:42;15.00;12.50;7.25
77411;PMS7003;66484;49.968;19.140;2024-03-17T03:36:43;15.50;12.00;8.50
77411;PMS7003;66484;49.968;19.140;2024-03-17T03:38:44;14.25;14.25;11.00
77411;PMS7003;66484;49.968;19.140;2024-03-17T03:40:45;16.00;14.00;9.00
77411;PMS7003;66484;49.968;19.140;2024-03-17T03:42:48;18.75;17.00;10.50
77411;PMS7003;66484;49.968;19.140;2024-03-17T03:44:49;19.50;16.75;10.25
77411;PMS7003;66484;49.968;19.140;2024-03-17T03:46:50;14.25;14.25;10.75
77411;PMS7003;66484;49.968;19.140;2024-03-17T03:48:50;16.50;11.75;7.25
77411;PMS7003;66484;49.968;19.140;2024-03-17T03:50:51;11.50;10.00;7.00
77411;PMS7003;66484;49.968;19.140;2024-03-17T03:52:52;13.75;11.75;8.00
77411;PMS7003;66484;49.968;19.140;2024-03-17T03:54:52;15.75;12.00;8.00
77411;PMS7003;66484;49.968;19.140;2024-03-17T03:56:53;6.75;6.75;4.75
77411;PMS7003;66484;49.968;19.140;2024-03-17T03:58:54;14.00;11.25;7.00
77411;PMS7003;66484;49.968;19.140;2024-03-17T04:00:55;6.50;3.50;2.00
77411;PMS7003;66484;49.968;19.140;2024-03-17T04:02:58;6.25;6.25;5.00
77411;PMS7003;66484;49.968;19.140;2024-03-17T04:04:59;8.50;7.00;5.00
77411;PMS7003;66484;49.968;19.140;2024-03-17T04:07:00;6.50;5.25;4.00
77411;PMS7003;66484;49.968;19.140;2024-03-17T04:09:01;8.75;6.25;3.25
77411;PMS7003;66484;49.968;19.140;2024-03-17T04:11:02;6.00;6.00;4.00
77411;PMS7003;66484;49.968;19.140;2024-03-17T04:13:02;3.50;3.00;2.00
77411;PMS7003;66484;49.968;19.140;2024-03-17T04:15:04;6.00;4.00;3.00
77411;PMS7003;66484;49.968;19.140;2024-03-17T04:17:06;4.75;3.50;1.75
77411;PMS7003;66484;49.968;19.140;2024-03-17T04:19:07;3.00;2.00;1.25
77411;PMS7003;66484;49.968;19.140;2024-03-17T04:21:09;1.25;1.25;1.25
77411;PMS7003;66484;49.968;19.140;2024-03-17T04:23:10;7.00;2.75;2.00
77411;PMS7003;66484;49.968;19.140;2024-03-17T04:25:13;3.00;3.00;2.00
77411;PMS7003;66484;49.968;19.140;2024-03-17T04:27:14;3.25;3.25;1.00
77411;PMS7003;66484;49.968;19.140;2024-03-17T04:29:15;4.25;3.75;2.75
77411;PMS7003;66484;49.968;19.140;2024-03-17T04:31:15;4.00;4.00;2.00
77411;PMS7003;66484;49.968;19.140;2024-03-17T04:33:16;5.75;5.75;4.00
77411;PMS7003;66484;49.968;19.140;2024-03-17T04:35:17;3.75;3.75;2.75
77411;PMS7003;66484;49.968;19.140;2024-03-17T04:37:18;3.25;3.25;2.00
77411;PMS7003;66484;49.968;19.140;2024-03-17T04:39:19;5.00;5.00;2.25
77411;PMS7003;66484;49.968;19.140;2024-03-17T04:41:20;6.00;4.50;3.00
77411;PMS7003;66484;49.968;19.140;2024-03-17T04:43:21;3.75;3.75;2.25
77411;PMS7003;66484;49.968;19.140;2024-03-17T04:45:21;3.25;3.25;2.75
77411;PMS7003;66484;49.968;19.140;2024-03-17T04:47:22;3.75;3.75;3.00
77411;PMS7003;66484;49.968;19.140;2024-03-17T04:49:23;6.50;5.50;2.25
77411;PMS7003;66484;49.968;19.140;2024-03-17T04:51:23;4.25;4.25;2.50
77411;PMS7003;66484;49.968;19.140;2024-03-17T04:53:24;7.00;5.50;3.00
77411;PMS7003;66484;49.968;19.140;2024-03-17T04:55:25;4.00;4.00;3.00
77411;PMS7003;66484;49.968;19.140;2024-03-17T04:57:26;5.50;5.50;4.50
77411;PMS7003;66484;49.968;19.140;2024-03-17T04:59:27;11.00;7.50;4.75
77411;PMS7003;66484;49.968;19.140;2024-03-17T05:01:29;8.75;7.50;6.50
77411;PMS7003;66484;49.968;19.140;2024-03-17T05:03:31;8.50;8.00;5.75
77411;PMS7003;66484;49.968;19.140;2024-03-17T05:05:33;15.00;15.00;8.00
77411;PMS7003;66484;49.968;19.140;2024-03-17T05:07:34;13.25;12.50;8.00
77411;PMS7003;66484;49.968;19.140;2024-03-17T05:09:35;18.25;17.00;12.00
77411;PMS7003;66484;49.968;19.140;2024-03-17T05:11:36;14.25;14.25;11.75
77411;PMS7003;66484;49.968;19.140;2024-03-17T05:13:38;11.00;11.00;7.75
77411;PMS7003;66484;49.968;19.140;2024-03-17T05:15:38;10.25;9.50;7.00
77411;PMS7003;66484;49.968;19.140;2024-03-17T05:17:39;9.00;9.00;7.00
77411;PMS7003;66484;49.968;19.140;2024-03-17T05:19:40;21.25;21.25;13.25
77411;PMS7003;66484;49.968;19.140;2024-03-17T05:21:41;24.00;22.50;15.75
77411;PMS7003;66484;49.968;19.140;2024-03-17T05:23:42;21.50;21.25;15.75
77411;PMS7003;66484;49.968;19.140;2024-03-17T05:25:50;26.50;22.75;15.50
77411;PMS7003;66484;49.968;19.140;2024-03-17T05:27:51;23.50;20.50;14.50
77411;PMS7003;66484;49.968;19.140;2024-03-17T05:29:52;17.50;16.25;13.00
77411;PMS7003;66484;49.968;19.140;2024-03-17T05:31:53;30.25;26.00;17.75
77411;PMS7003;66484;49.968;19.140;2024-03-17T05:33:53;11.25;9.50;6.00
77411;PMS7003;66484;49.968;19.140;2024-03-17T05:35:57;12.50;11.50;8.00
77411;PMS7003;66484;49.968;19.140;2024-03-17T05:37:59;12.75;11.00;8.00
77411;PMS7003;66484;49.968;19.140;2024-03-17T05:40:00;13.00;8.75;7.00
77411;PMS7003;66484;49.968;19.140;2024-03-17T05:42:01;20.50;16.50;10.75
77411;PMS7003;66484;49.968;19.140;2024-03-17T05:44:04;19.00;14.50;12.00
77411;PMS7003;66484;49.968;19.140;2024-03-17T05:46:05;7.50;6.75;5.75
77411;PMS7003;66484;49.968;19.140;2024-03-17T05:48:07;8.00;8.00;5.50
77411;PMS7003;66484;49.968;19.140;2024-03-17T05:50:10;13.00;9.00;6.00
77411;PMS7003;66484;49.968;19.140;2024-03-17T05:52:12;11.75;11.75;6.75
77411;PMS7003;66484;49.968;19.140;2024-03-17T05:54:13;15.00;15.00;12.00
77411;PMS7003;66484;49.968;19.140;2024-03-17T05:56:14;9.75;9.00;7.00
77411;PMS7003;66484;49.968;19.140;2024-03-17T05:58:16;15.00;13.75;8.25
77411;PMS7003;66484;49.968;19.140;2024-03-17T06:00:17;18.00;16.00;11.75
77411;PMS7003;66484;49.968;19.140;2024-03-17T06:02:17;15.25;13.50;9.00
77411;PMS7003;66484;49.968;19.140;2024-03-17T06:04:19;23.00;20.00;15.00
77411;PMS7003;66484;49.968;19.140;2024-03-17T06:06:20;18.75;18.75;14.75
77411;PMS7003;66484;49.968;19.140;2024-03-17T06:08:20;13.00;12.25;8.00
77411;PMS7003;66484;49.968;19.140;2024-03-17T06:10:22;17.75;16.50;10.75
77411;PMS7003;66484;49.968;19.140;2024-03-17T06:12:24;19.25;13.25;11.25
77411;PMS7003;66484;49.968;19.140;2024-03-17T06:14:25;12.50;11.25;7.00
77411;PMS7003;66484;49.968;19.140;2024-03-17T06:16:26;9.50;8.50;7.00
77411;PMS7003;66484;49.968;19.140;2024-03-17T06:18:27;12.25;8.25;6.25
77411;PMS7003;66484;49.968;19.140;2024-03-17T06:20:28;14.50;12.50;7.25
77411;PMS7003;66484;49.968;19.140;2024-03-17T06:22:29;8.00;8.00;5.00
77411;PMS7003;66484;49.968;19.140;2024-03-17T06:24:30;12.25;10.50;7.50
77411;PMS7003;66484;49.968;19.140;2024-03-17T06:26:30;27.25;21.00;15.50
77411;PMS7003;66484;49.968;19.140;2024-03-17T06:28:33;15.00;14.50;8.00
77411;PMS7003;66484;49.968;19.140;2024-03-17T06:30:35;9.25;8.00;6.25
77411;PMS7003;66484;49.968;19.140;2024-03-17T06:32:37;10.25;8.50;6.25
77411;PMS7003;66484;49.968;19.140;2024-03-17T06:34:37;12.00;9.75;6.50
77411;PMS7003;66484;49.968;19.140;2024-03-17T06:36:38;12.75;12.25;8.00
77411;PMS7003;66484;49.968;19.140;2024-03-17T06:38:39;11.00;8.25;6.00
77411;PMS7003;66484;49.968;19.140;2024-03-17T06:40:40;13.75;12.25;8.50
77411;PMS7003;66484;49.968;19.140;2024-03-17T06:42:41;14.75;13.00;7.75
77411;PMS7003;66484;49.968;19.140;2024-03-17T06:44:42;8.50;6.75;2.25
77411;PMS7003;66484;49.968;19.140;2024-03-17T06:46:43;15.25;11.75;6.50
77411;PMS7003;66484;49.968;19.140;2024-03-17T06:48:47;13.50;9.25;6.50
77411;PMS7003;66484;49.968;19.140;2024-03-17T06:50:47;8.00;7.00;6.00
77411;PMS7003;66484;49.968;19.140;2024-03-17T06:52:48;14.00;11.25;6.25
77411;PMS7003;66484;49.968;19.140;2024-03-17T06:54:49;14.00;12.00;8.00
77411;PMS7003;66484;49.968;19.140;2024-03-17T06:56:50;8.00;8.00;6.00
77411;PMS7003;66484;49.968;19.140;2024-03-17T06:58:52;15.00;12.75;7.25
77411;PMS7003;66484;49.968;19.140;2024-03-17T07:00:53;16.00;12.00;6.25
77411;PMS7003;66484;49.968;19.140;2024-03-17T07:02:55;11.75;11.75;9.50
77411;PMS7003;66484;49.968;19.140;2024-03-17T07:04:56;19.50;14.25;7.50
77411;PMS7003;66484;49.968;19.140;2024-03-17T07:06:58;12.25;12.00;6.75
77411;PMS7003;66484;49.968;19.140;2024-03-17T07:08:59;8.00;7.00;5.50
77411;PMS7003;66484;49.968;19.140;2024-03-17T07:11:00;6.25;6.25;4.75
77411;PMS7003;66484;49.968;19.140;2024-03-17T07:13:06;7.00;6.25;5.00
77411;PMS7003;66484;49.968;19.140;2024-03-17T07:15:06;6.50;6.50;5.00
77411;PMS7003;66484;49.968;19.140;2024-03-17T07:17:08;7.00;7.00;6.00
77411;PMS7003;66484;49.968;19.140;2024-03-17T07:19:09;6.00;5.50;4.75
77411;PMS7003;66484;49.968;19.140;2024-03-17T07:21:10;12.50;10.50;7.00
77411;PMS7003;66484;49.968;19.140;2024-03-17T07:23:11;12.75;10.25;7.00
77411;PMS7003;66484;49.968;19.140;2024-03-17T07:25:12;11.75;11.50;6.50
77411;PMS7003;66484;49.968;19.140;2024-03-17T07:27:12;13.00;10.75;4.75
77411;PMS7003;66484;49.968;19.140;2024-03-17T07:29:15;12.25;10.75;7.25
77411;PMS7003;66484;49.968;19.140;2024-03-17T07:31:16;10.00;9.50;5.00
77411;PMS7003;66484;49.968;19.140;2024-03-17T07:33:17;12.25;9.75;6.50
77411;PMS7003;66484;49.968;19.140;2024-03-17T07:35:20;10.25;8.75;6.75
77411;PMS7003;66484;49.968;19.140;2024-03-17T07:37:22;9.25;8.25;4.50
77411;PMS7003;66484;49.968;19.140;2024-03-17T12:11:43;4.20;4.20;3.00
77411;PMS7003;66484;49.968;19.140;2024-03-17T12:13:44;5.00;5.00;2.00
77411;PMS7003;66484;49.968;19.140;2024-03-17T12:15:45;10.67;10.67;6.00
77411;PMS7003;66484;49.968;19.140;2024-03-17T12:17:46;6.00;5.00;4.67
77411;PMS7003;66484;49.968;19.140;2024-03-17T12:19:52;4.00;4.00;3.00
77411;PMS7003;66484;49.968;19.140;2024-03-17T12:21:54;3.00;3.00;2.00
77411;PMS7003;66484;49.968;19.140;2024-03-17T12:23:56;2.00;2.00;1.00
77411;PMS7003;66484;49.968;19.140;2024-03-17T12:25:57;4.00;4.00;3.00
77411;PMS7003;66484;49.968;19.140;2024-03-17T12:27:58;4.67;4.67;4.00
77411;PMS7003;66484;49.968;19.140;2024-03-17T12:29:59;5.00;4.33;2.67
77411;PMS7003;66484;49.968;19.140;2024-03-17T12:32:01;3.00;3.00;2.00
77411;PMS7003;66484;49.968;19.140;2024-03-17T12:34:03;3.00;3.00;2.00
77411;PMS7003;66484;49.968;19.140;2024-03-17T12:36:04;5.67;2.67;2.00
77411;PMS7003;66484;49.968;19.140;2024-03-17T12:38:23;2.00;2.00;2.00
77411;PMS7003;66484;49.968;19.140;2024-03-17T12:40:24;2.00;2.00;1.67
77411;PMS7003;66484;49.968;19.140;2024-03-17T12:42:26;5.67;3.67;3.00
77411;PMS7003;66484;49.968;19.140;2024-03-17T12:44:27;0.00;0.00;0.00
77411;PMS7003;66484;49.968;19.140;2024-03-17T12:46:28;2.00;2.00;1.33
77411;PMS7003;66484;49.968;19.140;2024-03-17T12:48:29;1.33;1.33;1.00
77411;PMS7003;66484;49.968;19.140;2024-03-17T12:50:30;3.00;3.00;3.00
77411;PMS7003;66484;49.968;19.140;2024-03-17T12:52:32;4.00;2.00;2.00
77411;PMS7003;66484;49.968;19.140;2024-03-17T12:54:34;2.33;2.00;2.00
77411;PMS7003;66484;49.968;19.140;2024-03-17T12:56:35;2.00;2.00;1.00
77411;PMS7003;66484;49.968;19.140;2024-03-17T12:58:58;4.33;4.33;3.00
77411;PMS7003;66484;49.968;19.140;2024-03-17T13:01:24;1.00;1.00;1.00
77411;PMS7003;66484;49.968;19.140;2024-03-17T13:03:25;2.00;2.00;1.33
77411;PMS7003;66484;49.968;19.140;2024-03-17T13:05:28;1.00;1.00;1.00
77411;PMS7003;66484;49.968;19.140;2024-03-17T13:07:35;2.00;2.00;2.00
77411;PMS7003;66484;49.968;19.140;2024-03-17T13:09:36;1.33;1.33;1.00
77411;PMS7003;66484;49.968;19.140;2024-03-17T13:11:37;3.33;3.33;2.00
77411;PMS7003;66484;49.968;19.140;2024-03-17T13:13:37;2.33;2.33;2.33
77411;PMS7003;66484;49.968;19.140;2024-03-17T13:15:39;2.00;2.00;1.00
77411;PMS7003;66484;49.968;19.140;2024-03-17T13:17:39;4.00;3.00;2.00
77411;PMS7003;66484;49.968;19.140;2024-03-17T13:19:40;1.33;1.00;1.00
77411;PMS7003;66484;49.968;19.140;2024-03-17T13:21:42;2.00;2.00;2.00
77411;PMS7003;66484;49.968;19.140;2024-03-17T13:23:43;2.00;2.00;2.00
77411;PMS7003;66484;49.968;19.140;2024-03-17T13:25:45;1.33;1.33;1.00
77411;PMS7003;66484;49.968;19.140;2024-03-17T13:27:47;2.00;2.00;2.00
77411;PMS7003;66484;49.968;19.140;2024-03-17T13:29:48;4.00;2.00;2.00
77411;PMS7003;66484;49.968;19.140;2024-03-17T13:31:50;3.00;3.00;2.00
77411;PMS7003;66484;49.968;19.140;2024-03-17T13:33:51;1.00;1.00;1.00
77411;PMS7003;66484;49.968;19.140;2024-03-17T13:35:52;2.00;2.00;1.67
77411;PMS7003;66484;49.968;19.140;2024-03-17T13:37:53;3.33;2.00;2.00
77411;PMS7003;66484;49.968;19.140;2024-03-17T13:39:54;1.33;1.33;1.00
77411;PMS7003;66484;49.968;19.140;2024-03-17T13:41:55;1.00;1.00;1.00
77411;PMS7003;66484;49.968;19.140;2024-03-17T13:46:44;7.00;5.67;3.00
77411;PMS7003;66484;49.968;19.140;2024-03-17T13:48:45;3.33;1.67;1.00
77411;PMS7003;66484;49.968;19.140;2024-03-17T13:50:48;1.67;1.67;1.00
77411;PMS7003;66484;49.968;19.140;2024-03-17T13:52:50;3.00;1.00;1.00
77411;PMS7003;66484;49.968;19.140;2024-03-17T13:54:51;2.00;2.00;2.00
77411;PMS7003;66484;49.968;19.140;2024-03-17T13:56:53;4.00;2.00;2.00
77411;PMS7003;66484;49.968;19.140;2024-03-17T13:58:54;3.00;3.00;2.00
77411;PMS7003;66484;49.968;19.140;2024-03-17T14:00:55;2.33;2.00;1.00
77411;PMS7003;66484;49.968;19.140;2024-03-17T14:02:56;3.33;2.33;1.33
77411;PMS7003;66484;49.968;19.140;2024-03-17T14:04:57;1.67;1.67;1.33
77411;PMS7003;66484;49.968;19.140;2024-03-17T14:06:59;3.00;1.33;1.33
77411;PMS7003;66484;49.968;19.140;2024-03-17T14:08:59;2.00;2.00;2.00
77411;PMS7003;66484;49.968;19.140;2024-03-17T14:11:03;4.33;2.00;2.00
77411;PMS7003;66484;49.968;19.140;2024-03-17T14:13:07;2.00;2.00;2.00
77411;PMS7003;66484;49.968;19.140;2024-03-17T14:15:09;2.00;2.00;2.00
77411;PMS7003;66484;49.968;19.140;2024-03-17T14:17:11;2.00;2.00;2.00
77411;PMS7003;66484;49.968;19.140;2024-03-17T14:19:11;3.00;3.00;2.00
77411;PMS7003;66484;49.968;19.140;2024-03-17T14:21:12;4.00;2.67;2.00
77411;PMS7003;66484;49.968;19.140;2024-03-17T14:23:15;5.33;3.67;3.00
77411;PMS7003;66484;49.968;19.140;2024-03-17T14:25:16;6.00;5.00;3.00
77411;PMS7003;66484;49.968;19.140;2024-03-17T14:27:18;6.33;4.00;3.00
77411;PMS7003;66484;49.968;19.140;2024-03-17T14:29:18;4.00;2.00;1.00
77411;PMS7003;66484;49.968;19.140;2024-03-17T14:31:19;6.33;4.00;3.33
77411;PMS7003;66484;49.968;19.140;2024-03-17T14:33:20;3.00;3.00;3.00
77411;PMS7003;66484;49.968;19.140;2024-03-17T14:35:21;5.00;4.67;3.00
77411;PMS7003;66484;49.968;19.140;2024-03-17T14:37:23;5.50;4.50;4.00
77411;PMS7003;66484;49.968;19.140;2024-03-17T14:39:24;4.00;4.00;3.00
77411;PMS7003;66484;49.968;19.140;2024-03-17T14:41:24;4.67;4.67;3.67
77411;PMS7003;66484;49.968;19.140;2024-03-17T14:43:28;6.33;5.67;4.33
77411;PMS7003;66484;49.968;19.140;2024-03-17T14:45:28;3.33;3.33;3.00
77411;PMS7003;66484;49.968;19.140;2024-03-17T14:47:29;3.67;3.67;3.00
77411;PMS7003;66484;49.968;19.140;2024-03-17T14:49:30;5.33;4.67;3.00
77411;PMS7003;66484;49.968;19.140;2024-03-17T14:51:31;5.33;4.33;4.00
77411;PMS7003;66484;49.968;19.140;2024-03-17T14:53:32;3.00;3.00;2.00
77411;PMS7003;66484;49.968;19.140;2024-03-17T14:55:33;2.00;2.00;2.00
77411;PMS7003;66484;49.968;19.140;2024-03-17T14:57:34;4.00;3.00;3.00
77411;PMS7003;66484;49.968;19.140;2024-03-17T14:59:34;2.33;2.33;2.00
77411;PMS7003;66484;49.968;19.140;2024-03-17T15:01:35;5.33;4.00;3.33
77411;PMS7003;66484;49.968;19.140;2024-03-17T15:03:36;5.00;4.67;4.00
77411;PMS7003;66484;49.968;19.140;2024-03-17T15:05:37;5.25;4.75;4.00
77411;PMS7003;66484;49.968;19.140;2024-03-17T15:07:38;8.00;6.75;4.75
77411;PMS7003;66484;49.968;19.140;2024-03-17T15:09:38;4.33;4.00;2.33
77411;PMS7003;66484;49.968;19.140;2024-03-17T15:11:40;3.67;3.00;2.00
77411;PMS7003;66484;49.968;19.140;2024-03-17T15:13:41;4.00;4.00;3.00
77411;PMS7003;66484;49.968;19.140;2024-03-17T15:15:43;3.67;3.33;2.67
77411;PMS7003;66484;49.968;19.140;2024-03-17T15:17:47;3.33;3.33;2.33
77411;PMS7003;66484;49.968;19.140;2024-03-17T15:19:50;3.33;3.33;3.00
77411;PMS7003;66484;49.968;19.140;2024-03-17T15:21:51;6.00;6.00;3.00
77411;PMS7003;66484;49.968;19.140;2024-03-17T15:23:53;3.67;3.33;3.00
77411;PMS7003;66484;49.968;19.140;2024-03-17T15:25:53;4.00;4.00;2.00
77411;PMS7003;66484;49.968;19.140;2024-03-17T15:27:59;0.67;0.67;0.00
77411;PMS7003;66484;49.968;19.140;2024-03-17T15:30:01;3.00;2.00;2.00
77411;PMS7003;66484;49.968;19.140;2024-03-17T15:32:02;3.00;3.00;2.00
77411;PMS7003;66484;49.968;19.140;2024-03-17T15:34:05;4.00;3.00;2.00
77411;PMS7003;66484;49.968;19.140;2024-03-17T15:36:06;3.00;3.00;2.67
77411;PMS7003;66484;49.968;19.140;2024-03-17T15:38:08;3.00;3.00;2.67
77411;PMS7003;66484;49.968;19.140;2024-03-17T15:40:09;6.00;5.00;3.00
77411;PMS7003;66484;49.968;19.140;2024-03-17T15:42:16;4.33;4.33;2.67
77411;PMS7003;66484;49.968;19.140;2024-03-17T15:44:17;6.67;6.67;5.00
77411;PMS7003;66484;49.968;19.140;2024-03-17T15:46:21;6.00;6.00;4.67
77411;PMS7003;66484;49.968;19.140;2024-03-17T15:48:25;6.00;6.00;4.25
77411;PMS7003;66484;49.968;19.140;2024-03-17T15:50:25;7.00;4.00;3.00
77411;PMS7003;66484;49.968;19.140;2024-03-17T15:52:26;2.50;2.50;1.75
77411;PMS7003;66484;49.968;19.140;2024-03-17T15:54:28;6.00;4.75;3.00
77411;PMS7003;66484;49.968;19.140;2024-03-17T15:56:29;4.75;4.75;4.00
77411;PMS7003;66484;49.968;19.140;2024-03-17T15:58:30;7.50;6.75;4.75
77411;PMS7003;66484;49.968;19.140;2024-03-17T16:00:31;8.00;7.50;7.00
77411;PMS7003;66484;49.968;19.140;2024-03-17T16:02:32;5.75;5.75;5.00
77411;PMS7003;66484;49.968;19.140;2024-03-17T16:04:33;7.25;6.25;5.25
77411;PMS7003;66484;49.968;19.140;2024-03-17T16:06:33;6.50;5.25;4.00